Forside
METAR-TAF:

METAR-TAF

Lufthavne :

Land O' Lakes, Wisconsin, USA

Breddekreds: 46-09-14N, længdekreds: 089-12-43W, højde: 520 m

Aktuelle vejr

Denne rapport blev lavet for 14 minutter siden, kl. 15:55 UTC
Vind 7 kt fra vestnordvest
Temperatur 23°C
Fugtighed 53%
Tryk 1019 hPa
Sigt: 16.1 km
skyfri

METAR: KLNL 031555Z AUTO 29007KT 10SM CLR 23/13 A3010 RMK AO2 T02250125

Tid: 11:09 (16:09 UTC)


TAF: fraværende

Vejrobservationer og prognoser fra mere end 4000 lufthavne (METAR og TAF).

De gule og røde prikker repræsenterer de meteorologiske stationer.

Flyt musen over at se navnet på stationen.

Så klik over at se vejr observationer og prognoser.

At skifte det kort: Klik på de grønne knapper med et sort kors for at zoome ind; på den grønne knap med en bindestreg for at zoome ud; eller på de grønne pile for tilstødende kort.


METAR-TAF: